Capt. Ted — WDD6210 — position and weather

sailwx.info

Track history (hours):
 
Tides and Currents Weather Stations Pressure Air Temp Water Temp Dewpoint Dewpoint Depression Visibility Wind Speed Wind Dir Waves Ship Positions

Capt. Ted

Owner: Salisbury Towing Corporation, Havre de Grace, MD. More information available from US FCC via Universal Licensing System and Coast Guard Vessel Documentation Center.

Last reported at 2016-Aug-22 22:32 UTC. Time now 2016-Aug-25 06:14 UTC.
Position N 36°50' W 076°17'.

Length 32 m; draft 2.8 m.

Type: Tug. MMSI: 367169710.

Date/timePositionNaut miles runAvg speedWind from/ knotsBaromVisibWave heightAir tempDewpointWater temp
2016-Aug-22 22:32N 36°50' W 076°17'3 3.1
2016-Aug-22 21:33N 36°53' W 076°20'1 0.4
2016-Aug-22 18:33N 36°52' W 076°19'4 3.4
2016-Aug-22 17:29N 36°50' W 076°15'0 0.0
2016-Aug-22 16:10N 36°50' W 076°15'2 3.5
2016-Aug-22 15:34N 36°50' W 076°17'0 0.0
2016-Aug-22 14:33N 36°50' W 076°17'0 0.0
2016-Aug-22 13:33N 36°50' W 076°17'1 1.0
2016-Aug-22 12:33N 36°50' W 076°16'0 0.1
2016-Aug-22 11:33N 36°50' W 076°16'0 0.0
2016-Aug-22 10:33N 36°50' W 076°16'0 0.2
2016-Aug-22 09:34N 36°50' W 076°16'0 0.0
2016-Aug-22 08:33N 36°50' W 076°16'0 0.0
2016-Aug-22 07:33N 36°50' W 076°16'0 0.0
2016-Aug-22 06:29N 36°50' W 076°16'0 0.0
2016-Aug-22 05:34N 36°50' W 076°16'0 0.0
2016-Aug-22 04:34N 36°50' W 076°16'2 1.7
2016-Aug-22 03:33N 36°51' W 076°18'3 0.8
2016-Aug-21 23:30N 36°54' W 076°20'4 4.7
2016-Aug-21 22:33N 36°50' W 076°16'1 0.8
2016-Aug-21 21:33N 36°50' W 076°17'0 0.4
2016-Aug-21 20:34N 36°50' W 076°17'0 0.0
2016-Aug-21 19:34N 36°50' W 076°17'0 0.0
2016-Aug-21 18:34N 36°50' W 076°17'0 0.0
2016-Aug-21 17:33N 36°50' W 076°17'0 0.0
2016-Aug-21 16:34N 36°50' W 076°17'0 0.0
2016-Aug-21 15:34N 36°50' W 076°17'0 0.0
2016-Aug-21 14:34N 36°50' W 076°17'0 0.0
2016-Aug-21 13:34N 36°50' W 076°17'0 0.0
2016-Aug-21 12:34N 36°50' W 076°17'0 0.0
2016-Aug-21 11:34N 36°50' W 076°17'0 0.0
2016-Aug-21 10:34N 36°50' W 076°17'0 0.0
2016-Aug-21 09:33N 36°50' W 076°17'0 0.0
2016-Aug-21 08:33N 36°50' W 076°17'0 0.0
2016-Aug-21 07:33N 36°50' W 076°17'0 0.0
2016-Aug-21 06:29N 36°50' W 076°17'0 0.0
2016-Aug-21 05:34N 36°50' W 076°17'0 0.0
2016-Aug-21 04:33N 36°50' W 076°17'0 0.0
2016-Aug-21 03:33N 36°50' W 076°17'0 0.0
2016-Aug-21 02:33N 36°50' W 076°17'2 2.2
2016-Aug-21 01:33N 36°51' W 076°20'119 6.2
2016-Aug-20 06:17N 38°51' W 076°26'32 6.4
2016-Aug-20 01:19N 39°20' W 076°11'4 4.7
2016-Aug-20 00:33N 39°22' W 076°07'5 5.0
2016-Aug-19 23:34N 39°25' W 076°02'5 5.1
2016-Aug-19 22:33N 39°30' W 076°05'4 4.4
2016-Aug-19 21:34N 39°34' W 076°06'0 0.0
2016-Aug-19 20:33N 39°34' W 076°06'0 0.0
2016-Aug-19 19:31N 39°34' W 076°06'0 0.0
2016-Aug-19 18:11N 39°34' W 076°06'0 0.0
2016-Aug-19 17:31N 39°34' W 076°06'0 0.0
2016-Aug-19 16:33N 39°34' W 076°06'0 0.0
2016-Aug-19 15:29N 39°34' W 076°06'0 0.0
2016-Aug-19 14:34N 39°34' W 076°06'6 5.8
2016-Aug-19 13:33N 39°29' W 076°04'7 6.9
2016-Aug-19 12:34N 39°22' W 076°07'10 9.2
2016-Aug-19 11:31N 39°14' W 076°14'9 9.2
2016-Aug-19 10:31N 39°06' W 076°20'9 9.1
2016-Aug-19 09:33N 38°58' W 076°24'9 8.8
2016-Aug-19 08:33N 38°49' W 076°26'42 8.4
2016-Aug-19 03:30N 38°08' W 076°15'56 1.3
2016-Aug-17 07:11N 39°04' W 076°21'22 5.4
2016-Aug-17 03:04N 39°23' W 076°06'4 5.3
2016-Aug-17 02:23N 39°25' W 076°02'4 4.4
2016-Aug-17 01:33N 39°28' W 076°03'4 4.0
2016-Aug-17 00:33N 39°32' W 076°05'2 2.3
2016-Aug-16 23:33N 39°34' W 076°06'0 0.1
2016-Aug-16 22:34N 39°34' W 076°06'0 0.0
2016-Aug-16 21:34N 39°34' W 076°06'0 0.0
2016-Aug-16 20:34N 39°34' W 076°06'0 0.0
2016-Aug-16 19:34N 39°34' W 076°06'0 0.0
2016-Aug-16 18:33N 39°34' W 076°06'0 0.0
2016-Aug-16 17:33N 39°34' W 076°06'0 0.0
2016-Aug-16 16:34N 39°34' W 076°06'0 0.0
2016-Aug-16 15:34N 39°34' W 076°06'0 0.0
2016-Aug-16 14:34N 39°34' W 076°06'0 0.0
2016-Aug-16 13:33N 39°34' W 076°06'0 0.0
2016-Aug-16 12:33N 39°34' W 076°06'0 0.0
2016-Aug-16 11:34N 39°34' W 076°06'0 0.0
2016-Aug-16 10:33N 39°34' W 076°06'0 0.0
2016-Aug-16 09:33N 39°34' W 076°06'0 0.0
2016-Aug-16 08:34N 39°34' W 076°06'0 0.0
2016-Aug-16 07:34N 39°34' W 076°06'0 0.0
2016-Aug-16 04:34N 39°34' W 076°06'0 0.0
2016-Aug-16 03:33N 39°34' W 076°06'0 0.0
2016-Aug-16 02:33N 39°34' W 076°06'1 1.4
2016-Aug-16 01:33N 39°33' W 076°05'4 4.0
2016-Aug-16 00:33N 39°29' W 076°05'5 5.1
2016-Aug-15 23:33N 39°34' W 076°06'0 0.1
2016-Aug-15 22:33N 39°34' W 076°06'0 0.0
2016-Aug-15 21:34N 39°34' W 076°06'0 0.0
2016-Aug-15 20:33N 39°34' W 076°06'0 0.0
2016-Aug-15 19:33N 39°34' W 076°06'0 0.0
2016-Aug-15 18:33N 39°34' W 076°06'0 0.0
2016-Aug-15 17:34N 39°34' W 076°06'0 0.0
2016-Aug-15 16:33N 39°34' W 076°06'0 0.0
2016-Aug-15 15:34N 39°34' W 076°06'0 0.2
2016-Aug-15 14:33N 39°34' W 076°06'6 6.1
2016-Aug-15 13:34N 39°28' W 076°04'6 5.7
2016-Aug-15 12:34N 39°23' W 076°06'8 7.5
2016-Aug-15 11:34N 39°18' W 076°13'8 7.8
2016-Aug-15 10:33N 39°11' W 076°17'8 7.6
2016-Aug-15 09:33N 39°04' W 076°21'8 8.0
2016-Aug-15 08:33N 38°56' W 076°24'8 8.0
2016-Aug-15 07:34N 38°48' W 076°26'8 8.0
2016-Aug-15 06:34N 38°40' W 076°27'16 7.9
2016-Aug-15 04:34N 38°25' W 076°22'9 8.1
2016-Aug-15 03:26N 38°17' W 076°19'15 1.4
2016-Aug-14 16:27N 38°03' W 076°25'6 0.3
2016-Aug-13 16:09N 38°06' W 076°32'3 5.4
2016-Aug-13 15:33N 38°04' W 076°28'5 5.3
2016-Aug-13 14:32N 38°01' W 076°23'  
Track history (hours):
 
Tides and Currents Weather Stations Pressure Air Temp Water Temp Dewpoint Dewpoint Depression Visibility Wind Speed Wind Dir Waves Ship Positions

Capt. Ted

Owner: Salisbury Towing Corporation, Havre de Grace, MD. More information available from US FCC via Universal Licensing System and Coast Guard Vessel Documentation Center.

Last reported at 2016-Aug-22 22:32 UTC. Time now 2016-Aug-25 06:14 UTC.
Position N 36°50' W 076°17'.

Length 32 m; draft 2.8 m.

Type: Tug. MMSI: 367169710.

Date/timePositionNaut miles runAvg speedWind from/ knotsBaromVisibWave heightAir tempDewpointWater temp
2016-Aug-22 22:32N 36°50' W 076°17'3 3.1
2016-Aug-22 21:33N 36°53' W 076°20'1 0.4
2016-Aug-22 18:33N 36°52' W 076°19'4 3.4
2016-Aug-22 17:29N 36°50' W 076°15'0 0.0
2016-Aug-22 16:10N 36°50' W 076°15'2 3.5
2016-Aug-22 15:34N 36°50' W 076°17'0 0.0
2016-Aug-22 14:33N 36°50' W 076°17'0 0.0
2016-Aug-22 13:33N 36°50' W 076°17'1 1.0
2016-Aug-22 12:33N 36°50' W 076°16'0 0.1
2016-Aug-22 11:33N 36°50' W 076°16'0 0.0
2016-Aug-22 10:33N 36°50' W 076°16'0 0.2
2016-Aug-22 09:34N 36°50' W 076°16'0 0.0
2016-Aug-22 08:33N 36°50' W 076°16'0 0.0
2016-Aug-22 07:33N 36°50' W 076°16'0 0.0
2016-Aug-22 06:29N 36°50' W 076°16'0 0.0
2016-Aug-22 05:34N 36°50' W 076°16'0 0.0
2016-Aug-22 04:34N 36°50' W 076°16'2 1.7
2016-Aug-22 03:33N 36°51' W 076°18'3 0.8
2016-Aug-21 23:30N 36°54' W 076°20'4 4.7
2016-Aug-21 22:33N 36°50' W 076°16'1 0.8
2016-Aug-21 21:33N 36°50' W 076°17'0 0.4
2016-Aug-21 20:34N 36°50' W 076°17'0 0.0
2016-Aug-21 19:34N 36°50' W 076°17'0 0.0
2016-Aug-21 18:34N 36°50' W 076°17'0 0.0
2016-Aug-21 17:33N 36°50' W 076°17'0 0.0
2016-Aug-21 16:34N 36°50' W 076°17'0 0.0
2016-Aug-21 15:34N 36°50' W 076°17'0 0.0
2016-Aug-21 14:34N 36°50' W 076°17'0 0.0
2016-Aug-21 13:34N 36°50' W 076°17'0 0.0
2016-Aug-21 12:34N 36°50' W 076°17'0 0.0
2016-Aug-21 11:34N 36°50' W 076°17'0 0.0
2016-Aug-21 10:34N 36°50' W 076°17'0 0.0
2016-Aug-21 09:33N 36°50' W 076°17'0 0.0
2016-Aug-21 08:33N 36°50' W 076°17'0 0.0
2016-Aug-21 07:33N 36°50' W 076°17'0 0.0
2016-Aug-21 06:29N 36°50' W 076°17'0 0.0
2016-Aug-21 05:34N 36°50' W 076°17'0 0.0
2016-Aug-21 04:33N 36°50' W 076°17'0 0.0
2016-Aug-21 03:33N 36°50' W 076°17'0 0.0
2016-Aug-21 02:33N 36°50' W 076°17'2 2.2
2016-Aug-21 01:33N 36°51' W 076°20'119 6.2
2016-Aug-20 06:17N 38°51' W 076°26'32 6.4
2016-Aug-20 01:19N 39°20' W 076°11'4 4.7
2016-Aug-20 00:33N 39°22' W 076°07'5 5.0
2016-Aug-19 23:34N 39°25' W 076°02'5 5.1
2016-Aug-19 22:33N 39°30' W 076°05'4 4.4
2016-Aug-19 21:34N 39°34' W 076°06'0 0.0
2016-Aug-19 20:33N 39°34' W 076°06'0 0.0
2016-Aug-19 19:31N 39°34' W 076°06'0 0.0
2016-Aug-19 18:11N 39°34' W 076°06'0 0.0
2016-Aug-19 17:31N 39°34' W 076°06'0 0.0
2016-Aug-19 16:33N 39°34' W 076°06'0 0.0
2016-Aug-19 15:29N 39°34' W 076°06'0 0.0
2016-Aug-19 14:34N 39°34' W 076°06'6 5.8
2016-Aug-19 13:33N 39°29' W 076°04'7 6.9
2016-Aug-19 12:34N 39°22' W 076°07'10 9.2
2016-Aug-19 11:31N 39°14' W 076°14'9 9.2
2016-Aug-19 10:31N 39°06' W 076°20'9 9.1
2016-Aug-19 09:33N 38°58' W 076°24'9 8.8
2016-Aug-19 08:33N 38°49' W 076°26'42 8.4
2016-Aug-19 03:30N 38°08' W 076°15'56 1.3
2016-Aug-17 07:11N 39°04' W 076°21'22 5.4
2016-Aug-17 03:04N 39°23' W 076°06'4 5.3
2016-Aug-17 02:23N 39°25' W 076°02'4 4.4
2016-Aug-17 01:33N 39°28' W 076°03'4 4.0
2016-Aug-17 00:33N 39°32' W 076°05'2 2.3
2016-Aug-16 23:33N 39°34' W 076°06'0 0.1
2016-Aug-16 22:34N 39°34' W 076°06'0 0.0
2016-Aug-16 21:34N 39°34' W 076°06'0 0.0
2016-Aug-16 20:34N 39°34' W 076°06'0 0.0
2016-Aug-16 19:34N 39°34' W 076°06'0 0.0
2016-Aug-16 18:33N 39°34' W 076°06'0 0.0
2016-Aug-16 17:33N 39°34' W 076°06'0 0.0
2016-Aug-16 16:34N 39°34' W 076°06'0 0.0
2016-Aug-16 15:34N 39°34' W 076°06'0 0.0
2016-Aug-16 14:34N 39°34' W 076°06'0 0.0
2016-Aug-16 13:33N 39°34' W 076°06'0 0.0
2016-Aug-16 12:33N 39°34' W 076°06'0 0.0
2016-Aug-16 11:34N 39°34' W 076°06'0 0.0
2016-Aug-16 10:33N 39°34' W 076°06'0 0.0
2016-Aug-16 09:33N 39°34' W 076°06'0 0.0
2016-Aug-16 08:34N 39°34' W 076°06'0 0.0
2016-Aug-16 07:34N 39°34' W 076°06'0 0.0
2016-Aug-16 04:34N 39°34' W 076°06'0 0.0
2016-Aug-16 03:33N 39°34' W 076°06'0 0.0
2016-Aug-16 02:33N 39°34' W 076°06'1 1.4
2016-Aug-16 01:33N 39°33' W 076°05'4 4.0
2016-Aug-16 00:33N 39°29' W 076°05'5 5.1
2016-Aug-15 23:33N 39°34' W 076°06'0 0.1
2016-Aug-15 22:33N 39°34' W 076°06'0 0.0
2016-Aug-15 21:34N 39°34' W 076°06'0 0.0
2016-Aug-15 20:33N 39°34' W 076°06'0 0.0
2016-Aug-15 19:33N 39°34' W 076°06'0 0.0
2016-Aug-15 18:33N 39°34' W 076°06'0 0.0
2016-Aug-15 17:34N 39°34' W 076°06'0 0.0
2016-Aug-15 16:33N 39°34' W 076°06'0 0.0
2016-Aug-15 15:34N 39°34' W 076°06'0 0.2
2016-Aug-15 14:33N 39°34' W 076°06'6 6.1
2016-Aug-15 13:34N 39°28' W 076°04'6 5.7
2016-Aug-15 12:34N 39°23' W 076°06'8 7.5
2016-Aug-15 11:34N 39°18' W 076°13'8 7.8
2016-Aug-15 10:33N 39°11' W 076°17'8 7.6
2016-Aug-15 09:33N 39°04' W 076°21'8 8.0
2016-Aug-15 08:33N 38°56' W 076°24'8 8.0
2016-Aug-15 07:34N 38°48' W 076°26'8 8.0
2016-Aug-15 06:34N 38°40' W 076°27'16 7.9
2016-Aug-15 04:34N 38°25' W 076°22'9 8.1
2016-Aug-15 03:26N 38°17' W 076°19'15 1.4
2016-Aug-14 16:27N 38°03' W 076°25'6 0.3
2016-Aug-13 16:09N 38°06' W 076°32'3 5.4
2016-Aug-13 15:33N 38°04' W 076°28'5 5.3
2016-Aug-13 14:32N 38°01' W 076°23'  

Dump ship's entire track history